Time;durP1;ratioP1;P1;durP2;ratioP2;P2;SDS_P1;SDS_P2;PMS_P1;PMS_P2;Temp;Humidity;BMP_temperature;BMP_pressure;BME280_temperature;BME280_humidity;BME280_pressure;Samples;Min_cycle;Max_cycle;Signal;HPM_P1;HPM_P2
2022/08/24 00:02:05;;;;;;;;;20.33;20.33;;;;;19.82;100.00;99465.00;6318693;20;3577333;-64
2022/08/24 00:04:34;;;;;;;;;22.00;20.00;;;;;19.77;100.00;99467.34;6284053;20;3577304;-64
2022/08/24 00:07:05;;;;;;;;;29.33;25.00;;;;;19.67;100.00;99472.91;6279828;20;3584881;-64
2022/08/24 00:09:49;;;;;;;;;24.00;22.50;;;;;19.70;100.00;99471.75;6282983;20;2843035;-64
2022/08/24 00:12:18;;;;;;;;;24.00;22.33;;;;;19.61;100.00;99478.09;6286018;20;3576488;-63
2022/08/24 00:14:47;;;;;;;;;24.00;22.67;;;;;19.75;100.00;99474.84;6284077;20;3564874;-64
2022/08/24 00:17:19;;;;;;;;;18.00;17.00;;;;;19.82;100.00;99473.19;6277691;20;2832562;-64
2022/08/24 00:19:47;;;;;;;;;21.33;21.33;;;;;19.65;100.00;99471.31;6287261;20;3579487;-63
2022/08/24 00:22:16;;;;;;;;;23.50;22.00;;;;;19.70;100.00;99460.84;6282133;20;2835829;-64
2022/08/24 00:24:46;;;;;;;;;21.00;19.67;;;;;19.65;100.00;99468.59;6282624;20;2833597;-64
2022/08/24 00:27:14;;;;;;;;;20.00;19.00;;;;;19.58;100.00;99464.78;6311371;20;2824208;-64
2022/08/24 00:29:43;;;;;;;;;19.00;19.00;;;;;19.57;100.00;99471.25;6284082;20;3577314;-65
2022/08/24 00:32:11;;;;;;;;;22.00;21.00;;;;;19.57;100.00;99469.38;6289628;20;3580608;-64
2022/08/24 00:34:40;;;;;;;;;20.00;17.50;;;;;19.56;100.00;99477.69;6278388;20;2848533;-64
2022/08/24 00:37:23;;;;;;;;;23.00;22.00;;;;;19.49;100.00;99477.50;6280908;20;2846155;-64
2022/08/24 00:39:51;;;;;;;;;21.33;18.67;;;;;19.54;100.00;99477.88;6314905;20;3573132;-64
2022/08/24 00:42:20;;;;;;;;;21.00;20.00;;;;;19.35;100.00;99473.44;6279715;20;2840905;-64
2022/08/24 00:44:49;;;;;;;;;20.33;19.33;;;;;19.41;100.00;99470.09;6279620;20;3581531;-64
2022/08/24 00:47:32;;;;;;;;;17.50;16.00;;;;;19.39;100.00;99480.28;6281928;20;2824361;-64
2022/08/24 00:50:13;;;;;;;;;19.00;19.00;;;;;19.30;100.00;99470.34;6280571;20;2837764;-64
2022/08/24 00:53:03;;;;;;;;;18.33;16.67;;;;;19.50;100.00;99482.75;6313784;20;3573169;-65
2022/08/24 00:55:38;;;;;;;;;20.00;16.00;;;;;19.34;100.00;99490.78;6281688;20;2827356;-64
2022/08/24 00:58:24;;;;;;;;;18.00;18.00;;;;;19.41;100.00;99486.44;6275583;20;2837831;-64
2022/08/24 01:01:01;;;;;;;;;16.67;16.00;;;;;19.52;100.00;99482.63;6280464;20;3541890;-64
2022/08/24 01:03:31;;;;;;;;;16.33;15.00;;;;;19.70;100.00;99479.91;6314650;20;2811729;-64
2022/08/24 01:06:00;;;;;;;;;17.33;16.00;;;;;19.67;100.00;99488.41;6311108;20;3559731;-64
2022/08/24 01:08:29;;;;;;;;;16.67;14.67;;;;;19.60;100.00;99487.28;6278090;20;2491970;-64
2022/08/24 01:11:14;;;;;;;;;16.67;15.00;;;;;19.65;100.00;99493.13;6317907;20;3552375;-64
2022/08/24 01:13:47;;;;;;;;;16.00;14.50;;;;;19.46;100.00;99492.28;6314189;20;2809773;-64
2022/08/24 01:18:48;;;;;;;;;15.50;15.50;;;;;19.47;100.00;99491.25;6278118;20;2821073;-63
2022/08/24 01:19:26;;;;;;;;;16.50;14.50;;;;;19.55;100.00;99495.06;6280285;20;2813828;-63
2022/08/24 01:22:49;;;;;;;;;17.50;17.50;;;;;19.55;100.00;99500.50;6280763;20;2828379;-65
2022/08/24 01:25:18;;;;;;;;;16.67;16.67;;;;;19.29;100.00;99496.69;6279825;20;2489956;-64
2022/08/24 01:27:51;;;;;;;;;20.00;17.33;;;;;19.45;100.00;99496.00;6313333;20;3572288;-64
2022/08/24 01:30:19;;;;;;;;;19.67;19.00;;;;;19.43;100.00;99498.03;6282264;20;3585673;-64
2022/08/24 01:33:07;;;;;;;;;17.00;15.00;;;;;19.35;100.00;99495.22;6279545;20;2491941;-64
2022/08/24 01:35:38;;;;;;;;;20.33;17.67;;;;;19.37;100.00;99490.47;6314183;20;3566931;-64
2022/08/24 01:38:11;;;;;;;;;18.00;18.00;;;;;19.44;100.00;99493.44;6274833;20;2833712;-64
2022/08/24 01:40:53;;;;;;;;;19.00;18.00;;;;;19.25;100.00;99489.88;6283083;20;2827378;-64
2022/08/24 01:43:23;;;;;;;;;16.67;15.67;;;;;19.32;100.00;99497.41;6284208;20;2496091;-64
2022/08/24 01:45:52;;;;;;;;;16.00;15.00;;;;;19.30;100.00;99495.69;6317466;20;2814828;-64
2022/08/24 01:48:21;;;;;;;;;19.00;16.50;;;;;19.16;100.00;99488.06;6285311;20;2833660;-64
2022/08/24 01:50:51;;;;;;;;;18.50;17.00;;;;;19.12;100.00;99499.44;6285841;20;2832535;-64
2022/08/24 01:53:20;;;;;;;;;15.00;15.00;;;;;19.16;100.00;99492.66;6286156;20;2813825;-64
2022/08/24 01:55:49;;;;;;;;;17.00;17.00;;;;;19.05;100.00;99504.59;6285969;20;2837913;-65
2022/08/24 01:58:18;;;;;;;;;15.50;15.50;;;;;19.00;100.00;99496.91;6285139;20;2813838;-64
2022/08/24 02:00:46;;;;;;;;;20.33;17.33;;;;;19.00;100.00;99507.78;6290036;20;3565846;-64
2022/08/24 02:03:15;;;;;;;;;18.33;16.67;;;;;18.81;100.00;99508.75;6284810;20;2491932;-64
2022/08/24 02:05:44;;;;;;;;;17.67;17.67;;;;;19.03;100.00;99507.47;6314410;20;3568191;-64
2022/08/24 02:08:13;;;;;;;;;17.00;17.00;;;;;19.11;100.00;99506.72;6287158;20;2835678;-64
2022/08/24 02:10:42;;;;;;;;;19.00;17.50;;;;;18.81;100.00;99505.19;6287143;20;2836136;-65
2022/08/24 02:13:26;;;;;;;;;17.00;16.00;;;;;19.08;100.00;99507.03;6288363;20;2828393;-64
2022/08/24 02:15:54;;;;;;;;;13.00;13.00;;;;;19.12;100.00;99508.44;6287231;20;2808643;-66
2022/08/24 02:18:23;;;;;;;;;14.00;13.00;;;;;19.06;100.00;99515.34;6287702;20;3520142;-64
2022/08/24 02:20:52;;;;;;;;;20.50;17.00;;;;;19.14;100.00;99513.72;6279339;20;2832545;-65
2022/08/24 02:23:21;;;;;;;;;18.50;17.50;;;;;19.23;100.00;99513.66;6281359;20;2833854;-64
2022/08/24 02:25:50;;;;;;;;;14.33;14.33;;;;;19.22;100.00;99511.06;6285609;20;3539800;-65
2022/08/24 02:28:19;;;;;;;;;15.00;15.00;;;;;19.21;100.00;99514.81;6286785;20;2808616;-64
2022/08/24 02:30:49;;;;;;;;;18.00;17.00;;;;;19.34;100.00;99514.44;6288530;20;2483620;-64
2022/08/24 02:33:17;;;;;;;;;15.00;15.00;;;;;19.34;100.00;99518.00;6317778;20;3530416;-65
2022/08/24 02:35:46;;;;;;;;;15.33;13.33;;;;;19.22;100.00;99524.69;6316111;20;3532661;-64
2022/08/24 02:38:16;;;;;;;;;17.00;15.33;;;;;19.43;100.00;99517.09;6320433;20;3556569;-64
2022/08/24 02:40:45;;;;;;;;;20.00;16.00;;;;;19.36;100.00;99518.72;6312529;20;3560630;-65
2022/08/24 02:43:15;;;;;;;;;18.00;18.00;;;;;19.21;100.00;99526.56;6273794;20;2844635;-64
2022/08/24 02:45:46;;;;;;;;;19.00;18.00;;;;;19.25;100.00;99535.28;6315353;20;2832085;-64
2022/08/24 02:48:19;;;;;;;;;20.00;18.67;;;;;19.17;100.00;99535.16;6320588;20;3580462;-64
2022/08/24 02:50:51;;;;;;;;;20.33;17.33;;;;;19.22;100.00;99532.84;6284562;20;3573237;-64
2022/08/24 02:53:22;;;;;;;;;19.00;18.50;;;;;19.00;100.00;99535.00;6283015;20;2835711;-64
2022/08/24 02:55:51;;;;;;;;;19.00;19.00;;;;;19.30;100.00;99536.53;6285094;20;2837743;-64
2022/08/24 02:58:20;;;;;;;;;16.67;13.33;;;;;19.39;100.00;99534.75;6315605;20;2483632;-64
2022/08/24 03:00:48;;;;;;;;;17.33;16.67;;;;;19.41;100.00;99532.72;6316377;20;2483650;-64
2022/08/24 03:03:17;;;;;;;;;17.50;17.50;;;;;19.41;100.00;99527.28;6315849;20;2827400;-64
2022/08/24 03:05:46;;;;;;;;;20.00;17.00;;;;;19.41;100.00;99518.25;6281693;20;2833999;-64
2022/08/24 03:08:15;;;;;;;;;18.33;17.67;;;;;19.50;100.00;99529.06;6281827;20;2829460;-64
2022/08/24 03:10:44;;;;;;;;;20.33;19.00;;;;;19.47;100.00;99523.94;6316620;20;3573168;-64
2022/08/24 03:13:12;;;;;;;;;17.50;17.00;;;;;19.41;100.00;99527.28;6276937;20;2829411;-64
2022/08/24 03:15:41;;;;;;;;;21.00;19.00;;;;;19.45;100.00;99533.25;6282406;20;2836865;-64
2022/08/24 03:18:10;;;;;;;;;15.50;15.00;;;;;19.41;100.00;99524.56;6280837;20;2812914;-64
2022/08/24 03:20:42;;;;;;;;;16.00;16.00;;;;;19.44;100.00;99526.97;6286608;20;2827376;-64
2022/08/24 03:23:11;;;;;;;;;19.33;18.00;;;;;19.44;100.00;99531.56;6316149;20;3573177;-64
2022/08/24 03:25:40;;;;;;;;;18.00;18.00;;;;;19.40;100.00;99525.56;6281582;20;2834675;-65
2022/08/24 03:28:10;;;;;;;;;16.00;16.00;;;;;19.43;100.00;99522.53;6278755;20;2831657;-64
2022/08/24 03:30:42;;;;;;;;;21.50;18.50;;;;;19.45;100.00;99522.38;6284093;20;2835875;-65
2022/08/24 03:33:17;;;;;;;;;16.00;16.00;;;;;19.41;100.00;99520.97;6272113;20;2823212;-64
2022/08/24 03:35:48;;;;;;;;;19.00;15.50;;;;;19.49;100.00;99524.63;6289905;20;2483590;-62
2022/08/24 03:38:17;;;;;;;;;18.00;18.00;;;;;19.42;100.00;99520.81;6309406;20;2830458;-62
2022/08/24 03:40:46;;;;;;;;;18.00;16.00;;;;;19.46;100.00;99519.50;6278954;20;2827350;-63
2022/08/24 03:46:07;;;;;;;;;17.67;15.33;;;;;19.44;100.00;99520.66;6283841;20;2487773;-62
2022/08/24 03:48:37;;;;;;;;;17.00;15.50;;;;;19.44;100.00;99526.13;6312194;20;2824410;-63
2022/08/24 03:51:16;;;;;;;;;18.50;18.50;;;;;19.48;100.00;99532.94;6284573;20;2839938;-63
2022/08/24 03:53:45;;;;;;;;;18.00;16.00;;;;;19.52;100.00;99535.22;6281243;20;3567001;-62
2022/08/24 03:56:15;;;;;;;;;18.00;17.00;;;;;19.47;100.00;99523.94;6278252;20;2831635;-62
2022/08/24 03:58:46;;;;;;;;;15.33;15.33;;;;;19.45;100.00;99519.66;6272910;20;2490008;-69
2022/08/24 04:01:16;;;;;;;;;14.00;13.67;;;;;19.43;100.00;99508.03;6315420;20;3535628;-67
2022/08/24 04:03:48;;;;;;;;;19.50;18.00;;;;;19.56;100.00;99511.22;6313122;20;2832676;-66
2022/08/24 04:06:19;;;;;;;;;16.00;16.00;;;;;19.44;100.00;99505.19;6279236;20;2487748;-69
2022/08/24 04:08:50;;;;;;;;;17.00;17.00;;;;;19.43;100.00;99508.94;6278963;20;2833593;-68
2022/08/24 04:11:25;;;;;;;;;19.00;17.00;;;;;19.40;100.00;99509.22;6279197;20;2828376;-68
2022/08/24 04:13:57;;;;;;;;;20.00;19.00;;;;;19.43;100.00;99508.94;6277791;20;2832726;-66
2022/08/24 04:16:28;;;;;;;;;17.00;17.00;;;;;19.46;100.00;99508.63;6273748;20;2483634;-68
2022/08/24 04:18:58;;;;;;;;;22.00;19.00;;;;;19.50;100.00;99500.97;6281947;20;2844036;-68
2022/08/24 04:21:32;;;;;;;;;18.00;16.33;;;;;19.49;100.00;99508.28;6314893;20;3568561;-67
2022/08/24 04:24:06;;;;;;;;;18.00;16.50;;;;;19.55;100.00;99516.84;6281555;20;2823242;-68
2022/08/24 04:26:40;;;;;;;;;18.00;15.50;;;;;19.58;100.00;99519.25;6278360;20;2825377;-67
2022/08/24 04:29:15;;;;;;;;;18.00;16.50;;;;;19.56;100.00;99513.94;6283355;20;2831493;-67
2022/08/24 04:31:45;;;;;;;;;18.00;17.00;;;;;19.59;100.00;99510.06;6284686;20;2488226;-66
2022/08/24 04:34:16;;;;;;;;;16.00;16.00;;;;;19.66;100.00;99522.94;6313800;20;2825364;-68
2022/08/24 04:36:46;;;;;;;;;17.00;17.00;;;;;19.60;100.00;99526.25;6278330;20;2824343;-68
2022/08/24 04:39:15;;;;;;;;;20.00;19.00;;;;;19.63;100.00;99527.81;6284383;20;2842116;-68
2022/08/24 04:41:44;;;;;;;;;21.67;17.33;;;;;19.69;100.00;99536.25;6282667;20;3568979;-68
2022/08/24 04:44:13;;;;;;;;;16.33;16.33;;;;;19.90;100.00;99535.91;6284529;20;3562947;-68
2022/08/24 04:46:42;;;;;;;;;14.50;14.50;;;;;20.97;100.00;99548.34;6283229;20;2806623;-69
2022/08/24 04:49:12;;;;;;;;;20.00;18.33;;;;;21.55;99.89;99546.66;6286068;20;2837871;-69
2022/08/24 04:51:40;;;;;;;;;17.50;16.00;;;;;20.59;100.00;99544.25;6311696;20;2829450;-69
2022/08/24 04:54:09;;;;;;;;;18.50;16.50;;;;;20.39;100.00;99539.00;6283421;20;2832531;-68
2022/08/24 04:56:38;;;;;;;;;20.00;19.33;;;;;21.03;100.00;99539.47;6281578;20;2844104;-69
2022/08/24 04:59:07;;;;;;;;;16.33;16.33;;;;;21.31;100.00;99538.38;6311260;20;3557748;-69
2022/08/24 05:01:36;;;;;;;;;17.00;15.00;;;;;21.30;100.00;99537.53;6278266;20;2827355;-69
2022/08/24 05:04:05;;;;;;;;;15.00;15.00;;;;;21.39;100.00;99541.16;6283329;20;2816950;-69
2022/08/24 05:06:34;;;;;;;;;22.00;19.67;;;;;21.36;100.00;99536.84;6285302;20;2871146;-68
2022/08/24 05:09:05;;;;;;;;;14.00;14.00;;;;;21.33;100.00;99536.31;6314106;20;2798309;-69
2022/08/24 05:11:39;;;;;;;;;14.00;14.00;;;;;21.36;100.00;99536.00;6280667;20;2796097;-69
2022/08/24 05:14:07;;;;;;;;;14.67;14.67;;;;;21.84;100.00;99537.13;6281923;20;2487883;-69
2022/08/24 05:16:39;;;;;;;;;15.00;15.00;;;;;22.47;95.29;99541.00;6312945;20;2819023;-69
2022/08/24 05:19:20;;;;;;;;;16.00;16.00;;;;;22.90;92.33;99536.91;6280171;20;3549338;-68
2022/08/24 05:21:49;;;;;;;;;15.33;15.33;;;;;22.58;91.98;99538.75;6317402;20;3550302;-68
2022/08/24 05:24:18;;;;;;;;;18.50;16.00;;;;;22.66;94.06;99539.75;6286915;20;2821081;-66
2022/08/24 05:26:47;;;;;;;;;13.33;12.67;;;;;23.51;89.22;99541.75;6286582;20;2493993;-69
2022/08/24 05:29:17;;;;;;;;;14.67;14.00;;;;;22.51;92.81;99547.81;6314443;20;3541003;-68
2022/08/24 05:31:47;;;;;;;;;16.33;16.33;;;;;22.10;95.95;99545.97;6286338;20;2833725;-68
2022/08/24 05:34:17;;;;;;;;;16.50;15.50;;;;;21.85;97.17;99553.34;6319398;20;2821065;-69
2022/08/24 05:36:46;;;;;;;;;15.00;13.00;;;;;21.99;96.69;99559.16;6282485;20;2760661;-69
2022/08/24 05:39:15;;;;;;;;;15.50;14.00;;;;;21.89;96.91;99553.84;6312397;20;2821132;-68
2022/08/24 05:41:46;;;;;;;;;17.33;15.33;;;;;21.67;98.56;99545.31;6290802;20;3553377;-69
2022/08/24 05:44:17;;;;;;;;;17.67;15.33;;;;;21.65;99.05;99546.50;6283448;20;2470040;-68
2022/08/24 05:46:46;;;;;;;;;16.50;13.50;;;;;21.63;98.21;99543.94;6315950;20;2805551;-68
2022/08/24 05:49:15;;;;;;;;;18.00;13.50;;;;;21.81;98.35;99548.38;6282952;20;2804417;-68
2022/08/24 05:51:45;;;;;;;;;15.33;15.33;;;;;21.81;97.53;99553.84;6298582;20;2818156;-67
2022/08/24 05:54:13;;;;;;;;;17.67;16.00;;;;;21.77;97.50;99556.06;6320175;20;3558565;-67
2022/08/24 05:56:43;;;;;;;;;17.00;13.00;;;;;21.89;96.77;99562.06;6319533;20;3537841;-67
2022/08/24 05:59:13;;;;;;;;;15.50;15.50;;;;;22.28;95.65;99566.88;6319159;20;2810695;-67
2022/08/24 06:01:42;;;;;;;;;17.67;15.67;;;;;22.37;93.69;99559.50;6283361;20;2483629;-67
2022/08/24 06:04:13;;;;;;;;;15.00;15.00;;;;;22.05;95.91;99564.78;6329126;20;2613842;-66
2022/08/24 06:06:42;;;;;;;;;13.00;10.00;;;;;22.08;96.38;99575.38;6314149;20;3513763;-67
2022/08/24 06:09:12;;;;;;;;;15.33;14.33;;;;;22.09;95.31;99559.81;6317502;20;3545112;-67
2022/08/24 06:11:41;;;;;;;;;15.33;14.00;;;;;22.28;94.35;99558.66;6319334;20;2801335;-66
2022/08/24 06:14:16;;;;;;;;;12.00;12.00;;;;;22.38;92.57;99566.66;6316144;20;2483785;-70
2022/08/24 06:16:47;;;;;;;;;12.00;12.00;;;;;22.16;93.02;99562.72;6321696;20;2791976;-69
2022/08/24 06:19:18;;;;;;;;;12.00;12.00;;;;;21.94;94.35;99562.41;6317271;20;3523144;-65
2022/08/24 06:21:51;;;;;;;;;11.00;11.00;;;;;21.91;94.11;99562.75;6297629;20;2673183;-64
2022/08/24 06:27:22;;;;;;;;;12.33;11.00;;;;;22.02;93.60;99576.06;6322676;20;2788964;-65
2022/08/24 06:30:04;;;;;;;;;11.00;11.00;;;;;22.00;95.10;99577.25;6313317;20;3512800;-64
2022/08/24 06:32:33;;;;;;;;;12.33;9.67;;;;;22.14;93.83;99574.72;6313203;20;3502355;-65
2022/08/24 06:35:02;;;;;;;;;10.67;10.67;;;;;22.69;91.65;99580.44;6317837;20;2485749;-64
2022/08/24 06:37:30;;;;;;;;;12.33;10.33;;;;;23.10;87.92;99575.72;6310115;20;3518102;-65
2022/08/24 06:39:59;;;;;;;;;10.00;10.00;;;;;23.10;86.70;99580.34;6312343;20;3516007;-67
2022/08/24 06:42:28;;;;;;;;;11.33;11.33;;;;;23.38;86.42;99587.06;6315606;20;3517946;-66
2022/08/24 06:44:58;;;;;;;;;10.83;10.83;;;;;24.01;82.11;99592.47;6340072;20;2793990;-66
2022/08/24 06:47:27;;;;;;;;;7.67;7.67;;;;;25.89;75.35;99606.88;6322882;20;2746163;-67
2022/08/24 06:49:59;;;;;;;;;10.67;9.33;;;;;27.01;71.31;99605.25;6315443;20;2773242;-65
2022/08/24 06:52:28;;;;;;;;;10.00;7.00;;;;;26.82;70.18;99607.69;6319234;20;2768997;-65
2022/08/24 06:54:56;;;;;;;;;9.33;9.33;;;;;27.81;67.10;99611.19;6318894;20;2750253;-65
2022/08/24 06:57:25;;;;;;;;;9.33;8.00;;;;;28.58;64.27;99613.41;6322735;20;2754506;-65
2022/08/24 06:59:53;;;;;;;;;7.00;7.00;;;;;29.16;62.22;99622.91;6324727;20;2737817;-65
2022/08/24 07:02:22;;;;;;;;;10.33;8.67;;;;;29.03;62.15;99621.84;6312170;20;2753384;-65
2022/08/24 07:04:50;;;;;;;;;9.33;9.33;;;;;28.61;63.51;99618.50;6310253;20;2775257;-65
2022/08/24 07:07:19;;;;;;;;;7.33;6.00;;;;;27.98;64.86;99618.00;6303756;20;2742009;-65
2022/08/24 07:09:48;;;;;;;;;11.67;10.33;;;;;26.60;70.15;99617.91;6319127;20;2786730;-61
2022/08/24 07:12:16;;;;;;;;;10.67;9.67;;;;;25.13;76.50;99622.81;6310120;20;2790879;-64
2022/08/24 07:14:45;;;;;;;;;8.67;8.67;;;;;24.83;79.16;99616.44;6305645;20;2747322;-63
2022/08/24 07:17:13;;;;;;;;;10.00;10.00;;;;;24.91;78.90;99609.00;6305497;20;3504447;-63
2022/08/24 07:19:44;;;;;;;;;8.80;7.60;;;;;25.04;78.72;99619.31;6334258;20;2734674;-64
2022/08/24 07:22:13;;;;;;;;;10.00;7.33;;;;;25.04;78.79;99622.06;6279656;20;2759845;-63
2022/08/24 07:24:41;;;;;;;;;7.00;7.00;;;;;25.48;76.46;99626.66;6307563;20;2728389;-62
2022/08/24 07:27:11;;;;;;;;;6.67;6.00;;;;;27.96;67.60;99626.50;6308364;20;2731602;-64
2022/08/24 07:29:41;;;;;;;;;10.00;5.40;;;;;28.36;65.22;99620.19;6336412;20;2761732;-65
2022/08/24 07:32:28;;;;;;;;;6.40;5.00;;;;;28.88;63.51;99635.03;6301130;20;2756487;-65
2022/08/24 07:34:56;;;;;;;;;11.00;7.67;;;;;28.12;64.57;99635.44;6277547;20;2759654;-67
2022/08/24 07:37:25;;;;;;;;;8.67;8.67;;;;;26.15;72.21;99632.97;6307298;20;2756553;-63
2022/08/24 07:40:09;;;;;;;;;10.33;8.00;;;;;26.26;72.50;99632.44;6304880;20;2758802;-66
2022/08/24 07:42:39;;;;;;;;;6.33;6.33;;;;;26.35;72.74;99631.22;6318801;20;2737815;-65
2022/08/24 07:45:08;;;;;;;;;9.67;9.00;;;;;26.66;71.79;99643.81;6303873;20;2762740;-65
2022/08/24 07:47:37;;;;;;;;;8.00;8.00;;;;;26.81;71.77;99643.72;6304024;20;2748173;-64
2022/08/24 07:50:17;;;;;;;;;6.67;5.67;;;;;26.75;70.73;99644.50;6309900;20;2734782;-64
2022/08/24 07:52:45;;;;;;;;;12.67;11.33;;;;;27.20;71.73;99648.66;6309423;20;2794072;-62
2022/08/24 07:55:14;;;;;;;;;9.67;9.67;;;;;27.24;70.90;99638.91;6305692;20;3486713;-66
2022/08/24 07:57:44;;;;;;;;;12.33;9.33;;;;;27.47;69.26;99640.53;6305018;20;3494039;-65
2022/08/24 08:00:18;;;;;;;;;12.67;8.67;;;;;27.39;69.96;99647.06;6311227;20;2768021;-67
2022/08/24 08:02:48;;;;;;;;;11.33;9.33;;;;;27.63;68.84;99640.16;6305256;20;3503421;-66
2022/08/24 08:05:22;;;;;;;;;12.00;12.00;;;;;27.72;68.07;99646.34;6306474;20;3520074;-64
2022/08/24 08:07:52;;;;;;;;;9.67;9.33;;;;;27.02;70.20;99643.66;6312944;20;2755480;-63
2022/08/24 08:10:22;;;;;;;;;12.00;11.33;;;;;27.13;71.08;99644.97;6303787;20;3513899;-64
2022/08/24 08:12:51;;;;;;;;;13.33;11.33;;;;;27.56;69.48;99639.28;6272648;20;3510695;-68
2022/08/24 08:15:19;;;;;;;;;7.00;7.00;;;;;27.59;68.61;99652.66;6272957;20;2739853;-66
2022/08/24 08:17:48;;;;;;;;;9.67;7.00;;;;;27.60;67.93;99643.34;6302567;20;2753495;-64
2022/08/24 08:20:23;;;;;;;;;16.00;15.00;;;;;27.62;68.08;99641.22;6307705;20;3525273;-68
2022/08/24 08:25:39;;;;;;;;;13.50;13.00;;;;;27.44;68.96;99649.22;6276111;20;2800652;-66
2022/08/24 08:28:14;;;;;;;;;13.67;12.67;;;;;27.17;71.28;99649.03;6275691;20;3513909;-64
2022/08/24 08:30:53;;;;;;;;;13.00;10.33;;;;;27.89;67.02;99655.16;6306818;20;3515913;-63
2022/08/24 08:33:23;;;;;;;;;13.33;13.33;;;;;27.60;69.62;99654.38;6304670;20;3512862;-64
2022/08/24 08:36:13;;;;;;;;;15.00;12.33;;;;;27.56;69.35;99659.44;6279672;20;3530521;-68
2022/08/24 08:38:42;;;;;;;;;15.00;13.33;;;;;27.15;68.70;99664.94;6306449;20;3533724;-67
2022/08/24 08:41:57;;;;;;;;;18.67;16.33;;;;;27.12;71.16;99670.81;6305005;20;3570027;-65
2022/08/24 08:44:57;;;;;;;;;14.00;14.00;;;;;26.85;71.15;99667.88;6274985;20;2661736;-66
2022/08/24 08:48:01;;;;;;;;;19.33;13.67;;;;;26.49;72.74;99668.84;6301103;20;3533613;-64
2022/08/24 08:51:40;;;;;;;;;13.67;13.67;;;;;26.57;73.38;99670.66;6276083;20;3535640;-64
2022/08/24 08:54:32;;;;;;;;;17.00;15.00;;;;;26.26;74.24;99666.31;6306964;20;3554386;-65
2022/08/24 08:57:47;;;;;;;;;14.67;13.00;;;;;26.45;73.25;99673.03;6312596;20;3529777;-64
2022/08/24 09:00:27;;;;;;;;;17.00;17.00;;;;;26.13;74.63;99666.16;6308161;20;2833654;-67
2022/08/24 09:03:23;;;;;;;;;17.50;15.00;;;;;26.09;74.82;99666.75;6309874;20;2823235;-67
2022/08/24 09:06:08;;;;;;;;;16.67;16.67;;;;;26.10;74.56;99662.97;6277434;20;2835664;-67
2022/08/24 09:08:56;;;;;;;;;15.00;13.00;;;;;25.89;75.31;99667.41;6309242;20;2789835;-66
2022/08/24 09:12:13;;;;;;;;;19.00;17.00;;;;;25.28;77.46;99666.81;6312675;20;3574216;-65
2022/08/24 09:15:28;;;;;;;;;17.50;15.00;;;;;25.66;75.76;99653.75;6275962;20;2813932;-63
2022/08/24 09:18:24;;;;;;;;;20.33;17.00;;;;;25.65;76.80;99664.97;6273734;20;3560741;-66
2022/08/24 09:21:48;;;;;;;;;21.50;17.50;;;;;25.76;76.47;99653.47;6278846;20;2831502;-65
2022/08/24 09:24:51;;;;;;;;;18.67;15.67;;;;;25.70;77.18;99662.47;6278686;20;3562713;-66
2022/08/24 09:27:53;;;;;;;;;16.00;15.67;;;;;25.85;76.99;99666.06;6277588;20;3549281;-66
2022/08/24 09:30:51;;;;;;;;;18.33;16.33;;;;;25.63;76.42;99671.50;6280959;20;3575269;-66
2022/08/24 09:34:25;;;;;;;;;19.00;18.00;;;;;25.21;78.15;99665.84;6276285;20;2837755;-66
2022/08/24 09:37:29;;;;;;;;;16.50;16.50;;;;;25.67;76.81;99662.84;6274853;20;2815975;-66
2022/08/24 09:40:27;;;;;;;;;15.50;14.00;;;;;26.05;76.30;99669.91;6279253;20;2793071;-66
2022/08/24 09:44:03;;;;;;;;;14.00;13.00;;;;;26.14;76.68;99659.59;6278981;20;2483648;-66
2022/08/24 09:46:52;;;;;;;;;18.33;16.67;;;;;26.00;75.38;99671.53;6306594;20;3571883;-66
2022/08/24 09:49:39;;;;;;;;;16.00;16.00;;;;;26.33;75.43;99660.88;6277133;20;2831503;-64
2022/08/24 09:52:32;;;;;;;;;16.00;14.00;;;;;26.49;75.19;99663.34;6276914;20;2806525;-64
2022/08/24 09:56:14;;;;;;;;;14.00;14.00;;;;;26.62;74.67;99657.13;6279804;20;3519055;-67
2022/08/24 09:59:11;;;;;;;;;16.33;12.00;;;;;26.62;73.64;99654.38;6308571;20;3518969;-66
2022/08/24 10:02:55;;;;;;;;;13.00;13.00;;;;;26.30;73.50;99653.00;6278249;20;3531596;-69
2022/08/24 10:05:48;;;;;;;;;17.00;15.00;;;;;26.69;73.58;99657.19;6305883;20;2815924;-68
2022/08/24 10:09:16;;;;;;;;;14.33;13.00;;;;;26.59;73.08;99651.16;6276869;20;2483602;-68
2022/08/24 10:12:38;;;;;;;;;16.00;16.00;;;;;26.73;73.79;99652.97;6308250;20;3560720;-69
2022/08/24 10:15:31;;;;;;;;;15.00;12.67;;;;;27.04;72.42;99657.22;6277372;20;3521055;-68
2022/08/24 10:18:47;;;;;;;;;14.67;13.00;;;;;26.69;72.85;99665.44;6307885;20;3516911;-63
2022/08/24 10:22:02;;;;;;;;;15.00;14.67;;;;;26.53;73.05;99657.47;6309669;20;3531547;-64
2022/08/24 10:25:09;;;;;;;;;17.00;16.00;;;;;26.86;71.95;99660.50;6306720;20;2827538;-63
2022/08/24 10:29:07;;;;;;;;;16.00;13.50;;;;;26.49;73.98;99660.59;6277801;20;2807794;-63
2022/08/24 10:32:31;;;;;;;;;20.67;16.00;;;;;26.48;73.38;99647.84;6276939;20;2489849;-66
2022/08/24 10:35:15;;;;;;;;;17.67;15.00;;;;;26.47;74.41;99650.84;6308888;20;3541954;-64
2022/08/24 10:41:54;;;;;;;;;15.33;14.33;;;;;26.65;73.28;99653.97;6277712;20;2483561;-64
2022/08/24 10:45:06;;;;;;;;;19.33;16.33;;;;;26.57;73.94;99659.63;6311447;20;3558687;-64
2022/08/24 10:47:43;;;;;;;;;18.50;16.00;;;;;26.21;75.01;99655.03;6268916;20;2831543;-67
2022/08/24 10:50:59;;;;;;;;;20.00;17.00;;;;;26.12;74.53;99652.59;6271743;20;3575516;-67
2022/08/24 10:53:32;;;;;;;;;15.67;14.00;;;;;26.34;75.24;99650.72;6279010;20;3535648;-68
2022/08/24 10:56:11;;;;;;;;;22.33;19.33;;;;;26.35;74.63;99655.16;6309100;20;3581558;-67
2022/08/24 10:58:55;;;;;;;;;17.33;17.00;;;;;26.34;74.16;99650.72;6277626;20;2837742;-67
2022/08/24 11:01:37;;;;;;;;;16.00;16.00;;;;;26.17;73.95;99659.25;6307138;20;3569069;-67
2022/08/24 11:04:13;;;;;;;;;16.67;15.67;;;;;25.89;75.81;99661.91;6276417;20;3559629;-68
2022/08/24 11:07:16;;;;;;;;;19.67;17.00;;;;;25.66;76.63;99663.91;6274360;20;3575226;-68
2022/08/24 11:09:56;;;;;;;;;17.67;16.67;;;;;25.70;77.15;99662.47;6283522;20;3565290;-68
2022/08/24 11:12:43;;;;;;;;;21.33;17.67;;;;;25.65;76.83;99662.22;6279310;20;3580479;-68
2022/08/24 11:15:23;;;;;;;;;19.67;16.00;;;;;25.62;77.89;99664.31;6276325;20;3563802;-68
2022/08/24 11:18:03;;;;;;;;;19.00;16.00;;;;;25.41;77.95;99672.50;6275647;20;3560699;-68
2022/08/24 11:20:42;;;;;;;;;19.33;19.33;;;;;25.48;78.25;99664.31;6273925;20;3560642;-68
2022/08/24 11:23:25;;;;;;;;;18.67;16.67;;;;;25.54;78.38;99669.91;6277508;20;3562750;-68
2022/08/24 11:26:10;;;;;;;;;19.67;19.67;;;;;25.35;78.23;99665.00;6275200;20;3567965;-68
2022/08/24 11:29:05;;;;;;;;;17.00;15.67;;;;;25.44;78.17;99663.00;6274113;20;3562741;-68
2022/08/24 11:31:42;;;;;;;;;12.50;12.50;;;;;25.31;78.16;99666.44;6273175;20;2797169;-68
2022/08/24 11:34:35;;;;;;;;;19.00;18.33;;;;;25.47;78.65;99657.13;6272700;20;2832798;-67
2022/08/24 11:37:14;;;;;;;;;17.00;17.00;;;;;25.75;77.93;99665.50;6301681;20;2833589;-67
2022/08/24 11:39:42;;;;;;;;;17.00;16.00;;;;;25.76;76.74;99675.47;6278349;20;2824270;-65
2022/08/24 11:42:43;;;;;;;;;17.67;14.33;;;;;26.04;76.10;99670.97;6277122;20;3550426;-66
2022/08/24 11:45:44;;;;;;;;;20.00;17.00;;;;;26.25;75.27;99674.75;6275698;20;2635710;-67
2022/08/24 11:48:37;;;;;;;;;17.67;16.67;;;;;26.38;73.88;99671.28;6307509;20;3565873;-68
2022/08/24 11:51:34;;;;;;;;;20.00;17.00;;;;;26.49;73.49;99671.59;6275596;20;3562757;-67
2022/08/24 11:54:23;;;;;;;;;16.33;16.33;;;;;26.47;73.27;99673.69;6275682;20;3565853;-68
2022/08/24 11:57:10;;;;;;;;;18.67;17.00;;;;;26.87;72.25;99667.69;6273306;20;3563860;-68
2022/08/24 12:00:29;;;;;;;;;16.00;16.00;;;;;26.46;72.87;99674.75;6307369;20;3559051;-67
2022/08/24 12:03:26;;;;;;;;;16.00;14.50;;;;;26.46;74.45;99662.88;6270024;20;2816999;-67